sensor_id;sensor_type;location;lat;lon;timestamp;pressure;altitude;pressure_sealevel;temperature;humidity
42603;BME280;28233;55.748;48.752;2023-05-22T00:00:04;100245.94;;;16.59;36.78
42603;BME280;28233;55.748;48.752;2023-05-22T00:02:08;100253.00;;;16.57;37.14
42603;BME280;28233;55.748;48.752;2023-05-22T00:04:11;100242.59;;;16.54;37.65
42603;BME280;28233;55.748;48.752;2023-05-22T00:06:15;100247.19;;;16.49;37.47
42603;BME280;28233;55.748;48.752;2023-05-22T00:08:19;100248.69;;;16.47;37.93
42603;BME280;28233;55.748;48.752;2023-05-22T00:10:22;100251.34;;;16.43;37.79
42603;BME280;28233;55.748;48.752;2023-05-22T00:12:25;100240.94;;;16.40;37.89
42603;BME280;28233;55.748;48.752;2023-05-22T00:14:28;100243.59;;;16.37;38.10
42603;BME280;28233;55.748;48.752;2023-05-22T00:16:30;100245.53;;;16.36;38.31
42603;BME280;28233;55.748;48.752;2023-05-22T00:18:33;100243.81;;;16.32;37.46
42603;BME280;28233;55.748;48.752;2023-05-22T00:20:36;100248.44;;;16.27;36.88
42603;BME280;28233;55.748;48.752;2023-05-22T00:22:41;100245.19;;;16.25;37.93
42603;BME280;28233;55.748;48.752;2023-05-22T00:24:44;100245.84;;;16.22;37.95
42603;BME280;28233;55.748;48.752;2023-05-22T00:26:47;100246.22;;;16.21;37.92
42603;BME280;28233;55.748;48.752;2023-05-22T00:28:49;100248.19;;;16.20;36.80
42603;BME280;28233;55.748;48.752;2023-05-22T00:30:52;100245.41;;;16.20;37.24
42603;BME280;28233;55.748;48.752;2023-05-22T00:32:55;100243.78;;;16.19;38.77
42603;BME280;28233;55.748;48.752;2023-05-22T00:34:58;100252.41;;;16.18;38.08
42603;BME280;28233;55.748;48.752;2023-05-22T00:37:01;100246.44;;;16.16;37.08
42603;BME280;28233;55.748;48.752;2023-05-22T00:39:03;100258.66;;;16.15;37.33
42603;BME280;28233;55.748;48.752;2023-05-22T00:41:06;100244.22;;;16.09;37.78
42603;BME280;28233;55.748;48.752;2023-05-22T00:43:09;100253.00;;;16.11;38.33
42603;BME280;28233;55.748;48.752;2023-05-22T00:45:14;100254.13;;;16.10;38.69
42603;BME280;28233;55.748;48.752;2023-05-22T00:47:17;100258.88;;;16.10;37.21
42603;BME280;28233;55.748;48.752;2023-05-22T00:49:20;100257.28;;;16.09;36.43
42603;BME280;28233;55.748;48.752;2023-05-22T00:51:23;100252.53;;;16.09;37.04
42603;BME280;28233;55.748;48.752;2023-05-22T00:53:27;100250.09;;;16.08;36.63
42603;BME280;28233;55.748;48.752;2023-05-22T00:55:32;100250.88;;;16.08;38.96
42603;BME280;28233;55.748;48.752;2023-05-22T00:57:37;100252.53;;;16.09;38.29
42603;BME280;28233;55.748;48.752;2023-05-22T00:59:43;100256.91;;;16.10;37.78
42603;BME280;28233;55.748;48.752;2023-05-22T01:01:46;100255.78;;;16.11;36.93
42603;BME280;28233;55.748;48.752;2023-05-22T01:03:51;100255.09;;;16.14;36.22
42603;BME280;28233;55.748;48.752;2023-05-22T01:05:55;100253.25;;;16.18;36.28
42603;BME280;28233;55.748;48.752;2023-05-22T01:07:58;100252.91;;;16.20;36.65
42603;BME280;28233;55.748;48.752;2023-05-22T01:10:01;100261.69;;;16.22;35.89
42603;BME280;28233;55.748;48.752;2023-05-22T01:12:19;100256.94;;;16.22;37.39
42603;BME280;28233;55.748;48.752;2023-05-22T01:14:39;100258.22;;;16.25;36.29
42603;BME280;28233;55.748;48.752;2023-05-22T01:16:59;100261.34;;;16.23;35.81
42603;BME280;28233;55.748;48.752;2023-05-22T01:21:46;100259.16;;;16.29;35.76
42603;BME280;28233;55.748;48.752;2023-05-22T01:31:00;100261.28;;;16.44;35.38
42603;BME280;28233;55.748;48.752;2023-05-22T01:33:05;100260.94;;;16.46;35.36
42603;BME280;28233;55.748;48.752;2023-05-22T01:35:10;100258.28;;;16.49;35.88
42603;BME280;28233;55.748;48.752;2023-05-22T01:37:19;100257.97;;;16.51;36.16
42603;BME280;28233;55.748;48.752;2023-05-22T01:39:24;100259.25;;;16.54;36.23
42603;BME280;28233;55.748;48.752;2023-05-22T01:41:31;100258.88;;;16.55;36.69
42603;BME280;28233;55.748;48.752;2023-05-22T01:43:36;100261.31;;;16.57;36.71
42603;BME280;28233;55.748;48.752;2023-05-22T01:45:39;100261.78;;;16.59;37.34
42603;BME280;28233;55.748;48.752;2023-05-22T01:47:43;100257.84;;;16.60;37.77
42603;BME280;28233;55.748;48.752;2023-05-22T01:49:46;100267.09;;;16.64;38.14
42603;BME280;28233;55.748;48.752;2023-05-22T01:52:02;100259.25;;;16.66;38.66
42603;BME280;28233;55.748;48.752;2023-05-22T01:54:22;100267.56;;;16.66;39.45
42603;BME280;28233;55.748;48.752;2023-05-22T01:56:35;100269.19;;;16.67;39.55
42603;BME280;28233;55.748;48.752;2023-05-22T02:00:51;100265.28;;;16.68;41.12
42603;BME280;28233;55.748;48.752;2023-05-22T02:03:05;100268.03;;;16.68;41.54
42603;BME280;28233;55.748;48.752;2023-05-22T02:05:10;100266.22;;;16.72;41.82
42603;BME280;28233;55.748;48.752;2023-05-22T02:07:15;100273.38;;;16.73;41.90
42603;BME280;28233;55.748;48.752;2023-05-22T02:09:22;100267.91;;;16.77;42.33
42603;BME280;28233;55.748;48.752;2023-05-22T02:11:30;100269.69;;;16.81;42.72
42603;BME280;28233;55.748;48.752;2023-05-22T02:13:34;100269.50;;;16.86;43.34
42603;BME280;28233;55.748;48.752;2023-05-22T02:15:37;100272.84;;;16.92;42.82
42603;BME280;28233;55.748;48.752;2023-05-22T02:17:40;100272.59;;;16.97;43.05
42603;BME280;28233;55.748;48.752;2023-05-22T02:19:44;100274.72;;;17.00;43.21
42603;BME280;28233;55.748;48.752;2023-05-22T02:21:46;100276.06;;;17.06;43.50
42603;BME280;28233;55.748;48.752;2023-05-22T02:23:49;100269.47;;;17.11;42.64
42603;BME280;28233;55.748;48.752;2023-05-22T02:25:52;100267.63;;;17.15;42.75
42603;BME280;28233;55.748;48.752;2023-05-22T02:27:56;100268.19;;;17.21;42.95
42603;BME280;28233;55.748;48.752;2023-05-22T02:29:59;100276.28;;;17.26;42.87
42603;BME280;28233;55.748;48.752;2023-05-22T02:32:02;100272.25;;;17.23;42.53
42603;BME280;28233;55.748;48.752;2023-05-22T02:34:05;100275.72;;;17.32;43.02
42603;BME280;28233;55.748;48.752;2023-05-22T02:36:08;100274.31;;;17.39;43.09
42603;BME280;28233;55.748;48.752;2023-05-22T02:38:12;100279.63;;;17.44;42.58
42603;BME280;28233;55.748;48.752;2023-05-22T02:40:15;100275.47;;;17.50;42.89
42603;BME280;28233;55.748;48.752;2023-05-22T02:42:17;100283.56;;;17.55;42.77
42603;BME280;28233;55.748;48.752;2023-05-22T02:44:20;100281.72;;;17.59;42.50
42603;BME280;28233;55.748;48.752;2023-05-22T02:46:23;100289.44;;;17.66;42.23
42603;BME280;28233;55.748;48.752;2023-05-22T02:48:26;100285.25;;;17.72;42.20
42603;BME280;28233;55.748;48.752;2023-05-22T02:50:30;100285.81;;;17.78;42.13
42603;BME280;28233;55.748;48.752;2023-05-22T02:52:33;100280.84;;;17.83;42.32
42603;BME280;28233;55.748;48.752;2023-05-22T02:54:36;100285.72;;;17.86;42.64
42603;BME280;28233;55.748;48.752;2023-05-22T02:56:39;100288.59;;;17.90;42.63
42603;BME280;28233;55.748;48.752;2023-05-22T02:58:42;100288.59;;;17.90;42.44
42603;BME280;28233;55.748;48.752;2023-05-22T03:00:44;100293.53;;;17.96;42.45
42603;BME280;28233;55.748;48.752;2023-05-22T03:02:47;100289.28;;;17.99;41.89
42603;BME280;28233;55.748;48.752;2023-05-22T03:04:50;100275.44;;;18.03;41.61
42603;BME280;28233;55.748;48.752;2023-05-22T03:06:53;100285.84;;;18.06;42.04
42603;BME280;28233;55.748;48.752;2023-05-22T03:08:57;100283.53;;;18.08;41.73
42603;BME280;28233;55.748;48.752;2023-05-22T03:11:00;100287.25;;;18.12;41.65
42603;BME280;28233;55.748;48.752;2023-05-22T03:13:02;100286.53;;;18.15;41.77
42603;BME280;28233;55.748;48.752;2023-05-22T03:15:06;100284.31;;;18.21;42.00
42603;BME280;28233;55.748;48.752;2023-05-22T03:17:09;100293.13;;;18.23;42.28
42603;BME280;28233;55.748;48.752;2023-05-22T03:19:13;100290.53;;;18.30;42.49
42603;BME280;28233;55.748;48.752;2023-05-22T03:21:16;100289.81;;;18.33;41.65
42603;BME280;28233;55.748;48.752;2023-05-22T03:23:19;100292.34;;;18.38;41.01
42603;BME280;28233;55.748;48.752;2023-05-22T03:25:22;100299.25;;;18.44;41.72
42603;BME280;28233;55.748;48.752;2023-05-22T03:27:25;100302.13;;;18.48;42.00
42603;BME280;28233;55.748;48.752;2023-05-22T03:29:28;100304.31;;;18.54;41.54
42603;BME280;28233;55.748;48.752;2023-05-22T03:31:31;100301.16;;;18.56;41.72
42603;BME280;28233;55.748;48.752;2023-05-22T03:33:34;100298.00;;;18.57;41.09
42603;BME280;28233;55.748;48.752;2023-05-22T03:35:37;100294.16;;;18.62;41.15
42603;BME280;28233;55.748;48.752;2023-05-22T03:37:40;100303.06;;;18.68;41.81
42603;BME280;28233;55.748;48.752;2023-05-22T03:39:43;100297.97;;;18.70;41.33
42603;BME280;28233;55.748;48.752;2023-05-22T03:41:46;100315.19;;;18.75;41.76
42603;BME280;28233;55.748;48.752;2023-05-22T03:43:49;100304.53;;;18.77;40.90
42603;BME280;28233;55.748;48.752;2023-05-22T03:45:52;100308.94;;;18.78;41.79
42603;BME280;28233;55.748;48.752;2023-05-22T03:47:54;100309.84;;;18.83;41.63
42603;BME280;28233;55.748;48.752;2023-05-22T03:49:57;100308.78;;;18.87;41.58
42603;BME280;28233;55.748;48.752;2023-05-22T03:52:00;100300.59;;;18.94;41.56
42603;BME280;28233;55.748;48.752;2023-05-22T03:54:04;100302.75;;;19.01;41.80
42603;BME280;28233;55.748;48.752;2023-05-22T03:56:06;100303.28;;;19.07;42.94
42603;BME280;28233;55.748;48.752;2023-05-22T03:58:09;100303.91;;;19.16;42.65
42603;BME280;28233;55.748;48.752;2023-05-22T04:00:12;100307.59;;;19.20;42.79
42603;BME280;28233;55.748;48.752;2023-05-22T04:02:16;100298.94;;;19.25;42.39
42603;BME280;28233;55.748;48.752;2023-05-22T04:04:18;100299.50;;;19.31;41.17
42603;BME280;28233;55.748;48.752;2023-05-22T04:06:21;100293.56;;;19.32;40.85
42603;BME280;28233;55.748;48.752;2023-05-22T04:08:24;100308.56;;;19.43;42.04
42603;BME280;28233;55.748;48.752;2023-05-22T04:10:27;100306.66;;;19.48;42.35
42603;BME280;28233;55.748;48.752;2023-05-22T04:12:30;100307.63;;;19.55;43.16
42603;BME280;28233;55.748;48.752;2023-05-22T04:14:33;100305.81;;;19.63;42.48
42603;BME280;28233;55.748;48.752;2023-05-22T04:16:35;100314.34;;;19.70;42.09
42603;BME280;28233;55.748;48.752;2023-05-22T04:18:38;100310.91;;;19.77;41.90
42603;BME280;28233;55.748;48.752;2023-05-22T04:20:41;100312.25;;;19.83;43.14
42603;BME280;28233;55.748;48.752;2023-05-22T04:22:47;100311.16;;;19.88;43.23
42603;BME280;28233;55.748;48.752;2023-05-22T04:24:50;100314.91;;;19.95;42.69
42603;BME280;28233;55.748;48.752;2023-05-22T04:26:52;100313.38;;;19.98;41.46
42603;BME280;28233;55.748;48.752;2023-05-22T04:28:55;100302.34;;;20.05;41.64
42603;BME280;28233;55.748;48.752;2023-05-22T04:30:58;100312.56;;;20.17;41.46
42603;BME280;28233;55.748;48.752;2023-05-22T04:33:00;100302.34;;;20.24;41.65
42603;BME280;28233;55.748;48.752;2023-05-22T04:35:03;100304.91;;;20.33;42.83
42603;BME280;28233;55.748;48.752;2023-05-22T04:37:07;100313.38;;;20.37;41.77
42603;BME280;28233;55.748;48.752;2023-05-22T04:39:11;100307.91;;;20.44;42.83
42603;BME280;28233;55.748;48.752;2023-05-22T04:41:15;100310.09;;;20.54;40.72
42603;BME280;28233;55.748;48.752;2023-05-22T04:43:20;100313.50;;;20.63;41.09
42603;BME280;28233;55.748;48.752;2023-05-22T04:45:27;100312.06;;;20.73;42.10
42603;BME280;28233;55.748;48.752;2023-05-22T04:47:30;100311.84;;;20.82;41.48
42603;BME280;28233;55.748;48.752;2023-05-22T04:49:33;100315.47;;;20.86;39.80
42603;BME280;28233;55.748;48.752;2023-05-22T04:51:36;100313.56;;;20.90;39.89
42603;BME280;28233;55.748;48.752;2023-05-22T04:53:39;100310.84;;;20.94;39.77
42603;BME280;28233;55.748;48.752;2023-05-22T04:55:42;100316.13;;;20.99;38.99
42603;BME280;28233;55.748;48.752;2023-05-22T04:57:45;100310.97;;;21.01;39.42
42603;BME280;28233;55.748;48.752;2023-05-22T04:59:48;100308.97;;;21.01;39.59
42603;BME280;28233;55.748;48.752;2023-05-22T05:01:51;100304.69;;;21.07;38.52
42603;BME280;28233;55.748;48.752;2023-05-22T05:03:55;100309.56;;;21.14;38.45
42603;BME280;28233;55.748;48.752;2023-05-22T05:05:58;100316.94;;;21.26;38.39
42603;BME280;28233;55.748;48.752;2023-05-22T05:08:02;100321.03;;;21.32;38.92
42603;BME280;28233;55.748;48.752;2023-05-22T05:10:05;100315.13;;;21.37;39.36
42603;BME280;28233;55.748;48.752;2023-05-22T05:12:08;100316.09;;;21.45;38.84
42603;BME280;28233;55.748;48.752;2023-05-22T05:14:11;100315.38;;;21.51;38.02
42603;BME280;28233;55.748;48.752;2023-05-22T05:16:14;100309.88;;;21.59;37.48
42603;BME280;28233;55.748;48.752;2023-05-22T05:18:17;100317.25;;;21.70;38.04
42603;BME280;28233;55.748;48.752;2023-05-22T05:20:21;100314.53;;;21.78;37.76
42603;BME280;28233;55.748;48.752;2023-05-22T05:22:24;100319.09;;;21.89;36.41
42603;BME280;28233;55.748;48.752;2023-05-22T05:24:27;100315.22;;;21.98;37.00
42603;BME280;28233;55.748;48.752;2023-05-22T05:26:30;100310.09;;;22.03;36.40
42603;BME280;28233;55.748;48.752;2023-05-22T05:28:33;100315.03;;;22.13;36.68
42603;BME280;28233;55.748;48.752;2023-05-22T05:30:37;100312.34;;;22.21;36.07
42603;BME280;28233;55.748;48.752;2023-05-22T05:32:40;100309.19;;;22.26;36.36
42603;BME280;28233;55.748;48.752;2023-05-22T05:34:43;100318.91;;;22.35;36.14
42603;BME280;28233;55.748;48.752;2023-05-22T05:36:46;100312.22;;;22.44;35.24
42603;BME280;28233;55.748;48.752;2023-05-22T05:38:48;100313.13;;;22.55;35.54
42603;BME280;28233;55.748;48.752;2023-05-22T05:40:51;100314.75;;;22.59;34.72
42603;BME280;28233;55.748;48.752;2023-05-22T05:42:54;100313.25;;;22.66;34.07
42603;BME280;28233;55.748;48.752;2023-05-22T05:44:57;100310.88;;;22.71;33.99
42603;BME280;28233;55.748;48.752;2023-05-22T05:47:00;100307.41;;;22.82;34.80
42603;BME280;28233;55.748;48.752;2023-05-22T05:49:07;100308.25;;;22.89;34.25
42603;BME280;28233;55.748;48.752;2023-05-22T05:51:13;100308.69;;;22.95;33.42
42603;BME280;28233;55.748;48.752;2023-05-22T05:53:15;100312.81;;;23.05;34.41
42603;BME280;28233;55.748;48.752;2023-05-22T05:55:18;100308.09;;;23.12;34.00
42603;BME280;28233;55.748;48.752;2023-05-22T05:57:21;100306.09;;;23.16;32.61
42603;BME280;28233;55.748;48.752;2023-05-22T05:59:24;100309.81;;;23.28;32.72
42603;BME280;28233;55.748;48.752;2023-05-22T06:01:28;100307.88;;;23.35;32.29
42603;BME280;28233;55.748;48.752;2023-05-22T06:03:32;100296.72;;;23.46;32.97
42603;BME280;28233;55.748;48.752;2023-05-22T06:05:35;100306.81;;;23.54;32.65
42603;BME280;28233;55.748;48.752;2023-05-22T06:07:38;100306.47;;;23.67;32.19
42603;BME280;28233;55.748;48.752;2023-05-22T06:09:41;100299.28;;;23.73;31.95
42603;BME280;28233;55.748;48.752;2023-05-22T06:11:44;100304.97;;;23.83;32.27
42603;BME280;28233;55.748;48.752;2023-05-22T06:13:47;100303.44;;;23.97;31.86
42603;BME280;28233;55.748;48.752;2023-05-22T06:15:49;100301.88;;;24.07;31.44
42603;BME280;28233;55.748;48.752;2023-05-22T06:17:52;100309.13;;;24.11;31.64
42603;BME280;28233;55.748;48.752;2023-05-22T06:19:55;100300.69;;;24.15;30.86
42603;BME280;28233;55.748;48.752;2023-05-22T06:21:57;100308.34;;;24.21;30.78
42603;BME280;28233;55.748;48.752;2023-05-22T06:24:00;100312.41;;;24.27;31.14
42603;BME280;28233;55.748;48.752;2023-05-22T06:26:03;100315.22;;;24.35;31.17
42603;BME280;28233;55.748;48.752;2023-05-22T06:28:06;100311.22;;;24.39;30.65
42603;BME280;28233;55.748;48.752;2023-05-22T06:30:09;100310.03;;;24.37;30.45
42603;BME280;28233;55.748;48.752;2023-05-22T06:32:12;100317.63;;;24.43;30.68
42603;BME280;28233;55.748;48.752;2023-05-22T06:34:15;100313.28;;;24.50;30.99
42603;BME280;28233;55.748;48.752;2023-05-22T06:36:18;100304.88;;;24.53;30.90
42603;BME280;28233;55.748;48.752;2023-05-22T06:38:21;100306.50;;;24.58;31.43
42603;BME280;28233;55.748;48.752;2023-05-22T06:40:23;100308.50;;;24.68;30.98
42603;BME280;28233;55.748;48.752;2023-05-22T06:42:27;100306.13;;;24.77;31.69
42603;BME280;28233;55.748;48.752;2023-05-22T06:44:30;100310.53;;;24.85;31.84
42603;BME280;28233;55.748;48.752;2023-05-22T06:46:33;100310.13;;;24.94;33.14
42603;BME280;28233;55.748;48.752;2023-05-22T06:48:36;100307.75;;;25.03;30.83
42603;BME280;28233;55.748;48.752;2023-05-22T06:50:38;100309.34;;;25.11;29.88
42603;BME280;28233;55.748;48.752;2023-05-22T06:52:41;100311.78;;;25.20;31.14
42603;BME280;28233;55.748;48.752;2023-05-22T06:54:44;100301.75;;;25.26;30.70
42603;BME280;28233;55.748;48.752;2023-05-22T06:56:47;100300.53;;;25.31;28.82
42603;BME280;28233;55.748;48.752;2023-05-22T06:58:50;100306.94;;;25.39;27.50
42603;BME280;28233;55.748;48.752;2023-05-22T07:00:52;100298.50;;;25.42;27.73
42603;BME280;28233;55.748;48.752;2023-05-22T07:02:56;100304.13;;;25.49;28.70
42603;BME280;28233;55.748;48.752;2023-05-22T07:04:59;100306.09;;;25.60;30.19
42603;BME280;28233;55.748;48.752;2023-05-22T07:07:02;100305.69;;;25.68;28.00
42603;BME280;28233;55.748;48.752;2023-05-22T07:09:05;100296.84;;;25.73;28.41
42603;BME280;28233;55.748;48.752;2023-05-22T07:11:07;100300.03;;;25.83;27.74
42603;BME280;28233;55.748;48.752;2023-05-22T07:13:10;100298.00;;;25.87;30.09
42603;BME280;28233;55.748;48.752;2023-05-22T07:15:14;100302.81;;;25.93;29.44
42603;BME280;28233;55.748;48.752;2023-05-22T07:17:16;100299.56;;;26.02;26.84
42603;BME280;28233;55.748;48.752;2023-05-22T07:19:20;100307.59;;;26.11;28.48
42603;BME280;28233;55.748;48.752;2023-05-22T07:21:22;100295.84;;;26.23;29.48
42603;BME280;28233;55.748;48.752;2023-05-22T07:23:25;100294.63;;;26.28;29.11
42603;BME280;28233;55.748;48.752;2023-05-22T07:25:28;100308.31;;;26.26;28.27
42603;BME280;28233;55.748;48.752;2023-05-22T07:27:30;100295.81;;;26.27;28.48
42603;BME280;28233;55.748;48.752;2023-05-22T07:29:33;100300.25;;;26.24;27.08
42603;BME280;28233;55.748;48.752;2023-05-22T07:31:36;100296.63;;;26.31;28.65
42603;BME280;28233;55.748;48.752;2023-05-22T07:33:40;100290.19;;;26.30;28.91
42603;BME280;28233;55.748;48.752;2023-05-22T07:35:43;100296.22;;;26.29;28.57
42603;BME280;28233;55.748;48.752;2023-05-22T07:37:46;100295.09;;;26.12;28.22
42603;BME280;28233;55.748;48.752;2023-05-22T07:39:49;100301.97;;;26.07;27.87
42603;BME280;28233;55.748;48.752;2023-05-22T07:41:52;100302.00;;;26.00;28.10
42603;BME280;28233;55.748;48.752;2023-05-22T07:43:58;100308.03;;;25.99;28.30
42603;BME280;28233;55.748;48.752;2023-05-22T07:46:00;100309.28;;;25.90;27.45
42603;BME280;28233;55.748;48.752;2023-05-22T07:48:04;100308.03;;;25.84;27.25
42603;BME280;28233;55.748;48.752;2023-05-22T07:50:07;100303.63;;;25.87;26.94
42603;BME280;28233;55.748;48.752;2023-05-22T07:52:10;100308.47;;;25.83;27.52
42603;BME280;28233;55.748;48.752;2023-05-22T07:54:13;100307.66;;;25.75;27.55
42603;BME280;28233;55.748;48.752;2023-05-22T07:56:16;100312.53;;;25.71;28.13
42603;BME280;28233;55.748;48.752;2023-05-22T07:58:19;100313.72;;;25.70;28.63
42603;BME280;28233;55.748;48.752;2023-05-22T08:00:22;100312.91;;;25.73;27.96
42603;BME280;28233;55.748;48.752;2023-05-22T08:02:24;100308.88;;;25.78;29.10
42603;BME280;28233;55.748;48.752;2023-05-22T08:04:28;100307.69;;;25.89;29.47
42603;BME280;28233;55.748;48.752;2023-05-22T08:06:31;100313.66;;;26.02;29.31
42603;BME280;28233;55.748;48.752;2023-05-22T08:08:36;100315.56;;;26.23;29.59
42603;BME280;28233;55.748;48.752;2023-05-22T08:10:39;100309.91;;;26.34;29.17
42603;BME280;28233;55.748;48.752;2023-05-22T08:13:02;100312.63;;;26.45;28.06
42603;BME280;28233;55.748;48.752;2023-05-22T08:15:07;100314.22;;;26.56;27.55
42603;BME280;28233;55.748;48.752;2023-05-22T08:17:13;100311.75;;;26.62;26.12
42603;BME280;28233;55.748;48.752;2023-05-22T08:19:16;100304.03;;;26.73;27.61
42603;BME280;28233;55.748;48.752;2023-05-22T08:21:19;100301.09;;;26.88;27.68
42603;BME280;28233;55.748;48.752;2023-05-22T08:23:21;100313.50;;;27.05;26.39
42603;BME280;28233;55.748;48.752;2023-05-22T08:25:24;100305.31;;;27.21;26.35
42603;BME280;28233;55.748;48.752;2023-05-22T08:27:27;100313.34;;;27.26;25.70
42603;BME280;28233;55.748;48.752;2023-05-22T08:29:29;100307.19;;;27.35;25.37
42603;BME280;28233;55.748;48.752;2023-05-22T08:31:35;100307.56;;;27.40;24.95
42603;BME280;28233;55.748;48.752;2023-05-22T08:33:38;100299.41;;;27.50;25.08
42603;BME280;28233;55.748;48.752;2023-05-22T08:35:41;100313.81;;;27.59;26.40
42603;BME280;28233;55.748;48.752;2023-05-22T08:37:43;100309.59;;;27.78;26.22
42603;BME280;28233;55.748;48.752;2023-05-22T08:39:46;100305.06;;;27.88;25.40
42603;BME280;28233;55.748;48.752;2023-05-22T08:41:49;100305.47;;;27.86;25.17
42603;BME280;28233;55.748;48.752;2023-05-22T08:43:52;100312.78;;;27.80;25.79
42603;BME280;28233;55.748;48.752;2023-05-22T08:45:59;100300.34;;;27.74;24.97
42603;BME280;28233;55.748;48.752;2023-05-22T08:48:03;100301.50;;;27.80;24.68
42603;BME280;28233;55.748;48.752;2023-05-22T08:50:09;100303.09;;;27.85;24.99
42603;BME280;28233;55.748;48.752;2023-05-22T08:52:17;100306.31;;;27.83;26.03
42603;BME280;28233;55.748;48.752;2023-05-22T08:54:25;100306.00;;;27.74;25.62
42603;BME280;28233;55.748;48.752;2023-05-22T08:56:29;100307.28;;;27.66;25.05
42603;BME280;28233;55.748;48.752;2023-05-22T08:58:36;100306.16;;;27.56;24.14
42603;BME280;28233;55.748;48.752;2023-05-22T09:00:39;100304.88;;;27.64;24.46
42603;BME280;28233;55.748;48.752;2023-05-22T09:02:43;100302.00;;;27.71;24.24
42603;BME280;28233;55.748;48.752;2023-05-22T09:04:46;100296.34;;;27.71;24.82
42603;BME280;28233;55.748;48.752;2023-05-22T09:06:49;100297.84;;;27.79;23.03
42603;BME280;28233;55.748;48.752;2023-05-22T09:08:52;100290.63;;;27.75;22.15
42603;BME280;28233;55.748;48.752;2023-05-22T09:10:55;100303.88;;;27.81;22.40
42603;BME280;28233;55.748;48.752;2023-05-22T09:13:05;100298.22;;;27.81;23.88
42603;BME280;28233;55.748;48.752;2023-05-22T09:15:10;100293.91;;;27.73;23.93
42603;BME280;28233;55.748;48.752;2023-05-22T09:17:14;100297.63;;;27.63;22.61
42603;BME280;28233;55.748;48.752;2023-05-22T09:19:17;100296.88;;;27.59;21.44
42603;BME280;28233;55.748;48.752;2023-05-22T09:21:20;100298.47;;;27.60;22.02
42603;BME280;28233;55.748;48.752;2023-05-22T09:23:29;100294.00;;;27.62;22.07
42603;BME280;28233;55.748;48.752;2023-05-22T09:25:32;100299.25;;;27.64;23.17
42603;BME280;28233;55.748;48.752;2023-05-22T09:27:34;100303.66;;;27.65;21.94
42603;BME280;28233;55.748;48.752;2023-05-22T09:29:51;100295.56;;;27.67;21.51
42603;BME280;28233;55.748;48.752;2023-05-22T09:31:54;100300.03;;;27.65;22.27
42603;BME280;28233;55.748;48.752;2023-05-22T09:33:57;100293.59;;;27.64;22.84
42603;BME280;28233;55.748;48.752;2023-05-22T09:36:00;100293.81;;;27.80;21.72
42603;BME280;28233;55.748;48.752;2023-05-22T09:38:04;100283.19;;;27.95;24.61
42603;BME280;28233;55.748;48.752;2023-05-22T09:40:10;100282.59;;;28.08;22.87
42603;BME280;28233;55.748;48.752;2023-05-22T09:42:16;100289.63;;;28.27;22.78
42603;BME280;28233;55.748;48.752;2023-05-22T09:44:19;100291.19;;;28.31;23.35
42603;BME280;28233;55.748;48.752;2023-05-22T09:46:27;100292.41;;;28.30;23.83
42603;BME280;28233;55.748;48.752;2023-05-22T09:48:33;100287.41;;;28.41;23.13
42603;BME280;28233;55.748;48.752;2023-05-22T09:50:37;100284.97;;;28.43;22.55
42603;BME280;28233;55.748;48.752;2023-05-22T09:52:44;100282.16;;;28.43;22.65
42603;BME280;28233;55.748;48.752;2023-05-22T09:54:50;100292.22;;;28.44;22.05
42603;BME280;28233;55.748;48.752;2023-05-22T09:56:58;100273.94;;;28.53;23.18
42603;BME280;28233;55.748;48.752;2023-05-22T09:59:02;100279.94;;;28.58;21.70
42603;BME280;28233;55.748;48.752;2023-05-22T10:01:05;100276.25;;;28.61;23.41
42603;BME280;28233;55.748;48.752;2023-05-22T10:03:12;100284.06;;;28.50;21.80
42603;BME280;28233;55.748;48.752;2023-05-22T10:05:19;100277.38;;;28.37;22.75
42603;BME280;28233;55.748;48.752;2023-05-22T10:07:27;100281.03;;;28.34;22.89
42603;BME280;28233;55.748;48.752;2023-05-22T10:09:34;100279.78;;;28.38;22.95
42603;BME280;28233;55.748;48.752;2023-05-22T10:11:39;100279.34;;;28.40;22.15
42603;BME280;28233;55.748;48.752;2023-05-22T10:13:42;100277.31;;;28.40;21.29
42603;BME280;28233;55.748;48.752;2023-05-22T10:15:49;100274.09;;;28.42;21.45
42603;BME280;28233;55.748;48.752;2023-05-22T10:17:52;100275.25;;;28.48;22.25
42603;BME280;28233;55.748;48.752;2023-05-22T10:19:56;100280.44;;;28.50;20.45
42603;BME280;28233;55.748;48.752;2023-05-22T10:21:59;100278.41;;;28.50;21.53
42603;BME280;28233;55.748;48.752;2023-05-22T10:24:02;100274.69;;;28.57;22.18
42603;BME280;28233;55.748;48.752;2023-05-22T10:26:08;100274.03;;;28.73;22.84
42603;BME280;28233;55.748;48.752;2023-05-22T10:28:15;100271.78;;;28.87;20.23
42603;BME280;28233;55.748;48.752;2023-05-22T10:33:02;100275.00;;;29.37;21.43
42603;BME280;28233;55.748;48.752;2023-05-22T10:37:43;100268.50;;;29.60;21.60
42603;BME280;28233;55.748;48.752;2023-05-22T10:40:04;100268.75;;;29.69;22.14
42603;BME280;28233;55.748;48.752;2023-05-22T10:42:12;100276.31;;;29.76;19.12
42603;BME280;28233;55.748;48.752;2023-05-22T10:44:16;100261.72;;;29.54;20.07
42603;BME280;28233;55.748;48.752;2023-05-22T10:46:19;100275.56;;;29.52;18.70
42603;BME280;28233;55.748;48.752;2023-05-22T10:48:22;100265.94;;;29.45;17.85
42603;BME280;28233;55.748;48.752;2023-05-22T10:50:25;100259.50;;;29.45;19.73
42603;BME280;28233;55.748;48.752;2023-05-22T10:52:27;100264.09;;;29.59;19.44
42603;BME280;28233;55.748;48.752;2023-05-22T10:54:39;100257.53;;;29.62;18.78
42603;BME280;28233;55.748;48.752;2023-05-22T10:56:42;100262.31;;;29.68;18.47